sensor_id;sensor_type;location;lat;lon;timestamp;P1;durP1;ratioP1;P2;durP2;ratioP2
15595;SDS011;7898;48.658;9.068;2023-02-01T00:00:59;8.93;;;5.23;;
15595;SDS011;7898;48.658;9.068;2023-02-01T00:03:31;7.07;;;5.03;;
15595;SDS011;7898;48.658;9.068;2023-02-01T00:05:59;7.73;;;5.17;;
15595;SDS011;7898;48.658;9.068;2023-02-01T00:08:26;4.70;;;4.00;;
15595;SDS011;7898;48.658;9.068;2023-02-01T00:10:59;6.67;;;4.40;;
15595;SDS011;7898;48.658;9.068;2023-02-01T00:13:30;6.63;;;4.57;;
15595;SDS011;7898;48.658;9.068;2023-02-01T00:16:04;7.10;;;4.63;;
15595;SDS011;7898;48.658;9.068;2023-02-01T00:18:32;5.27;;;3.90;;
15595;SDS011;7898;48.658;9.068;2023-02-01T00:21:00;5.83;;;4.47;;
15595;SDS011;7898;48.658;9.068;2023-02-01T00:23:27;7.60;;;4.57;;
15595;SDS011;7898;48.658;9.068;2023-02-01T00:25:54;6.53;;;4.50;;
15595;SDS011;7898;48.658;9.068;2023-02-01T00:28:21;7.00;;;4.60;;
15595;SDS011;7898;48.658;9.068;2023-02-01T00:30:55;6.57;;;4.17;;
15595;SDS011;7898;48.658;9.068;2023-02-01T00:33:22;6.40;;;4.43;;
15595;SDS011;7898;48.658;9.068;2023-02-01T00:35:49;6.83;;;4.40;;
15595;SDS011;7898;48.658;9.068;2023-02-01T00:38:18;6.53;;;4.20;;
15595;SDS011;7898;48.658;9.068;2023-02-01T00:40:45;5.07;;;3.63;;
15595;SDS011;7898;48.658;9.068;2023-02-01T00:43:12;6.47;;;4.27;;
15595;SDS011;7898;48.658;9.068;2023-02-01T00:45:38;6.07;;;3.73;;
15595;SDS011;7898;48.658;9.068;2023-02-01T00:48:08;6.40;;;4.20;;
15595;SDS011;7898;48.658;9.068;2023-02-01T00:50:35;16.33;;;8.07;;
15595;SDS011;7898;48.658;9.068;2023-02-01T00:53:06;4.50;;;3.47;;
15595;SDS011;7898;48.658;9.068;2023-02-01T00:55:35;4.60;;;3.43;;
15595;SDS011;7898;48.658;9.068;2023-02-01T00:58:02;5.50;;;3.93;;
15595;SDS011;7898;48.658;9.068;2023-02-01T01:00:30;4.23;;;3.43;;
15595;SDS011;7898;48.658;9.068;2023-02-01T01:02:57;4.57;;;3.60;;
15595;SDS011;7898;48.658;9.068;2023-02-01T01:05:24;5.60;;;3.63;;
15595;SDS011;7898;48.658;9.068;2023-02-01T01:07:52;4.50;;;3.30;;
15595;SDS011;7898;48.658;9.068;2023-02-01T01:10:19;4.20;;;3.10;;
15595;SDS011;7898;48.658;9.068;2023-02-01T01:12:48;5.80;;;3.20;;
15595;SDS011;7898;48.658;9.068;2023-02-01T01:15:15;7.13;;;4.00;;
15595;SDS011;7898;48.658;9.068;2023-02-01T01:17:42;6.10;;;3.57;;
15595;SDS011;7898;48.658;9.068;2023-02-01T01:20:10;4.70;;;3.97;;
15595;SDS011;7898;48.658;9.068;2023-02-01T01:22:38;7.07;;;4.00;;
15595;SDS011;7898;48.658;9.068;2023-02-01T01:25:05;4.13;;;3.50;;
15595;SDS011;7898;48.658;9.068;2023-02-01T01:27:33;4.90;;;3.63;;
15595;SDS011;7898;48.658;9.068;2023-02-01T01:30:01;4.43;;;3.40;;
15595;SDS011;7898;48.658;9.068;2023-02-01T01:32:28;4.83;;;3.40;;
15595;SDS011;7898;48.658;9.068;2023-02-01T01:34:54;5.57;;;3.90;;
15595;SDS011;7898;48.658;9.068;2023-02-01T01:37:21;6.47;;;4.00;;
15595;SDS011;7898;48.658;9.068;2023-02-01T01:39:48;6.50;;;4.20;;
15595;SDS011;7898;48.658;9.068;2023-02-01T01:42:15;5.03;;;3.43;;
15595;SDS011;7898;48.658;9.068;2023-02-01T01:44:56;4.93;;;3.60;;
15595;SDS011;7898;48.658;9.068;2023-02-01T01:47:26;4.00;;;3.43;;
15595;SDS011;7898;48.658;9.068;2023-02-01T01:49:58;4.47;;;3.83;;
15595;SDS011;7898;48.658;9.068;2023-02-01T01:52:26;5.07;;;4.23;;
15595;SDS011;7898;48.658;9.068;2023-02-01T01:54:53;5.93;;;3.80;;
15595;SDS011;7898;48.658;9.068;2023-02-01T01:57:22;4.83;;;4.13;;
15595;SDS011;7898;48.658;9.068;2023-02-01T01:59:53;5.60;;;3.50;;
15595;SDS011;7898;48.658;9.068;2023-02-01T02:02:23;7.77;;;4.83;;
15595;SDS011;7898;48.658;9.068;2023-02-01T02:04:52;6.93;;;4.13;;
15595;SDS011;7898;48.658;9.068;2023-02-01T02:07:19;8.90;;;4.67;;
15595;SDS011;7898;48.658;9.068;2023-02-01T02:09:50;10.47;;;4.87;;
15595;SDS011;7898;48.658;9.068;2023-02-01T02:12:17;9.97;;;5.20;;
15595;SDS011;7898;48.658;9.068;2023-02-01T02:14:44;9.67;;;5.30;;
15595;SDS011;7898;48.658;9.068;2023-02-01T02:17:18;9.90;;;5.00;;
15595;SDS011;7898;48.658;9.068;2023-02-01T02:20:11;4.90;;;3.50;;
15595;SDS011;7898;48.658;9.068;2023-02-01T02:29:01;4.97;;;3.43;;
15595;SDS011;7898;48.658;9.068;2023-02-01T02:34:45;4.00;;;3.40;;
15595;SDS011;7898;48.658;9.068;2023-02-01T02:37:16;4.70;;;3.73;;
15595;SDS011;7898;48.658;9.068;2023-02-01T02:39:52;4.40;;;3.57;;
15595;SDS011;7898;48.658;9.068;2023-02-01T02:42:25;4.50;;;3.27;;
15595;SDS011;7898;48.658;9.068;2023-02-01T02:45:14;3.67;;;2.90;;
15595;SDS011;7898;48.658;9.068;2023-02-01T02:48:04;5.40;;;3.43;;
15595;SDS011;7898;48.658;9.068;2023-02-01T02:50:40;4.70;;;3.60;;
15595;SDS011;7898;48.658;9.068;2023-02-01T02:53:42;4.97;;;3.70;;
15595;SDS011;7898;48.658;9.068;2023-02-01T02:56:32;11.13;;;5.83;;
15595;SDS011;7898;48.658;9.068;2023-02-01T02:59:19;11.17;;;6.10;;
15595;SDS011;7898;48.658;9.068;2023-02-01T03:02:07;15.47;;;7.17;;
15595;SDS011;7898;48.658;9.068;2023-02-01T03:04:52;10.23;;;5.60;;
15595;SDS011;7898;48.658;9.068;2023-02-01T03:10:24;8.27;;;5.20;;
15595;SDS011;7898;48.658;9.068;2023-02-01T03:12:59;6.43;;;4.87;;
15595;SDS011;7898;48.658;9.068;2023-02-01T03:15:31;11.47;;;6.77;;
15595;SDS011;7898;48.658;9.068;2023-02-01T03:18:05;5.73;;;4.20;;
15595;SDS011;7898;48.658;9.068;2023-02-01T03:20:37;8.73;;;5.87;;
15595;SDS011;7898;48.658;9.068;2023-02-01T03:23:12;6.80;;;5.10;;
15595;SDS011;7898;48.658;9.068;2023-02-01T03:25:43;5.80;;;4.33;;
15595;SDS011;7898;48.658;9.068;2023-02-01T03:28:13;4.60;;;4.10;;
15595;SDS011;7898;48.658;9.068;2023-02-01T03:30:46;4.97;;;3.97;;
15595;SDS011;7898;48.658;9.068;2023-02-01T03:33:15;5.23;;;3.73;;
15595;SDS011;7898;48.658;9.068;2023-02-01T03:35:52;5.73;;;4.80;;
15595;SDS011;7898;48.658;9.068;2023-02-01T03:38:26;7.80;;;4.90;;
15595;SDS011;7898;48.658;9.068;2023-02-01T03:41:00;6.93;;;4.07;;
15595;SDS011;7898;48.658;9.068;2023-02-01T03:43:36;6.40;;;4.30;;
15595;SDS011;7898;48.658;9.068;2023-02-01T03:46:14;5.17;;;3.60;;
15595;SDS011;7898;48.658;9.068;2023-02-01T03:48:46;6.23;;;4.43;;
15595;SDS011;7898;48.658;9.068;2023-02-01T03:51:16;7.73;;;4.87;;
15595;SDS011;7898;48.658;9.068;2023-02-01T03:53:46;5.07;;;3.50;;
15595;SDS011;7898;48.658;9.068;2023-02-01T03:56:15;5.50;;;3.53;;
15595;SDS011;7898;48.658;9.068;2023-02-01T03:58:44;5.10;;;3.33;;
15595;SDS011;7898;48.658;9.068;2023-02-01T04:01:24;5.17;;;3.90;;
15595;SDS011;7898;48.658;9.068;2023-02-01T04:03:51;4.87;;;2.90;;
15595;SDS011;7898;48.658;9.068;2023-02-01T04:06:18;5.97;;;4.00;;
15595;SDS011;7898;48.658;9.068;2023-02-01T04:08:47;5.00;;;3.10;;
15595;SDS011;7898;48.658;9.068;2023-02-01T04:11:13;4.70;;;3.40;;
15595;SDS011;7898;48.658;9.068;2023-02-01T04:13:41;4.60;;;3.17;;
15595;SDS011;7898;48.658;9.068;2023-02-01T04:16:08;4.77;;;3.50;;
15595;SDS011;7898;48.658;9.068;2023-02-01T04:18:35;4.27;;;3.53;;
15595;SDS011;7898;48.658;9.068;2023-02-01T04:21:02;5.73;;;4.00;;
15595;SDS011;7898;48.658;9.068;2023-02-01T04:23:29;4.80;;;3.60;;
15595;SDS011;7898;48.658;9.068;2023-02-01T04:26:00;3.87;;;3.37;;
15595;SDS011;7898;48.658;9.068;2023-02-01T04:28:27;4.03;;;3.00;;
15595;SDS011;7898;48.658;9.068;2023-02-01T04:30:57;5.57;;;3.60;;
15595;SDS011;7898;48.658;9.068;2023-02-01T04:33:24;4.53;;;3.67;;
15595;SDS011;7898;48.658;9.068;2023-02-01T04:35:51;4.67;;;3.33;;
15595;SDS011;7898;48.658;9.068;2023-02-01T04:38:18;5.47;;;3.33;;
15595;SDS011;7898;48.658;9.068;2023-02-01T04:40:46;4.20;;;3.47;;
15595;SDS011;7898;48.658;9.068;2023-02-01T04:43:15;6.20;;;3.80;;
15595;SDS011;7898;48.658;9.068;2023-02-01T04:45:46;4.03;;;2.80;;
15595;SDS011;7898;48.658;9.068;2023-02-01T04:48:14;4.43;;;2.93;;
15595;SDS011;7898;48.658;9.068;2023-02-01T04:50:42;4.47;;;3.23;;
15595;SDS011;7898;48.658;9.068;2023-02-01T04:53:14;3.97;;;2.97;;
15595;SDS011;7898;48.658;9.068;2023-02-01T04:55:41;4.10;;;2.77;;
15595;SDS011;7898;48.658;9.068;2023-02-01T04:58:09;4.27;;;3.20;;
15595;SDS011;7898;48.658;9.068;2023-02-01T05:00:38;3.67;;;2.70;;
15595;SDS011;7898;48.658;9.068;2023-02-01T05:03:04;4.73;;;3.03;;
15595;SDS011;7898;48.658;9.068;2023-02-01T05:05:32;6.13;;;3.33;;
15595;SDS011;7898;48.658;9.068;2023-02-01T05:07:58;4.20;;;3.33;;
15595;SDS011;7898;48.658;9.068;2023-02-01T05:10:25;4.23;;;3.30;;
15595;SDS011;7898;48.658;9.068;2023-02-01T05:12:52;3.60;;;2.40;;
15595;SDS011;7898;48.658;9.068;2023-02-01T05:15:38;2.60;;;2.00;;
15595;SDS011;7898;48.658;9.068;2023-02-01T05:18:05;2.90;;;1.80;;
15595;SDS011;7898;48.658;9.068;2023-02-01T05:20:32;3.80;;;2.70;;
15595;SDS011;7898;48.658;9.068;2023-02-01T05:22:59;6.20;;;2.70;;
15595;SDS011;7898;48.658;9.068;2023-02-01T05:25:26;2.53;;;1.83;;
15595;SDS011;7898;48.658;9.068;2023-02-01T05:27:52;3.83;;;2.53;;
15595;SDS011;7898;48.658;9.068;2023-02-01T05:30:19;4.13;;;2.40;;
15595;SDS011;7898;48.658;9.068;2023-02-01T05:32:50;2.63;;;2.17;;
15595;SDS011;7898;48.658;9.068;2023-02-01T05:35:17;2.97;;;2.43;;
15595;SDS011;7898;48.658;9.068;2023-02-01T05:37:43;6.00;;;2.50;;
15595;SDS011;7898;48.658;9.068;2023-02-01T05:40:11;3.33;;;2.87;;
15595;SDS011;7898;48.658;9.068;2023-02-01T05:42:38;3.07;;;2.30;;
15595;SDS011;7898;48.658;9.068;2023-02-01T05:45:05;3.23;;;2.40;;
15595;SDS011;7898;48.658;9.068;2023-02-01T05:47:33;4.00;;;2.90;;
15595;SDS011;7898;48.658;9.068;2023-02-01T05:50:01;3.33;;;2.67;;
15595;SDS011;7898;48.658;9.068;2023-02-01T05:52:28;4.47;;;2.97;;
15595;SDS011;7898;48.658;9.068;2023-02-01T05:54:55;4.17;;;2.80;;
15595;SDS011;7898;48.658;9.068;2023-02-01T05:57:22;4.07;;;3.00;;
15595;SDS011;7898;48.658;9.068;2023-02-01T05:59:49;4.07;;;3.00;;
15595;SDS011;7898;48.658;9.068;2023-02-01T06:02:16;3.67;;;2.70;;
15595;SDS011;7898;48.658;9.068;2023-02-01T06:04:43;4.50;;;3.33;;
15595;SDS011;7898;48.658;9.068;2023-02-01T06:07:11;7.07;;;5.17;;
15595;SDS011;7898;48.658;9.068;2023-02-01T06:09:38;8.23;;;6.13;;
15595;SDS011;7898;48.658;9.068;2023-02-01T06:12:05;5.67;;;4.13;;
15595;SDS011;7898;48.658;9.068;2023-02-01T06:14:32;4.40;;;3.40;;
15595;SDS011;7898;48.658;9.068;2023-02-01T06:16:59;4.53;;;3.47;;
15595;SDS011;7898;48.658;9.068;2023-02-01T06:19:26;7.10;;;3.03;;
15595;SDS011;7898;48.658;9.068;2023-02-01T06:21:53;7.23;;;3.53;;
15595;SDS011;7898;48.658;9.068;2023-02-01T06:24:21;4.03;;;3.10;;
15595;SDS011;7898;48.658;9.068;2023-02-01T06:26:48;6.23;;;2.90;;
15595;SDS011;7898;48.658;9.068;2023-02-01T06:29:15;4.07;;;2.90;;
15595;SDS011;7898;48.658;9.068;2023-02-01T06:31:42;5.47;;;3.17;;
15595;SDS011;7898;48.658;9.068;2023-02-01T06:34:09;5.23;;;2.50;;
15595;SDS011;7898;48.658;9.068;2023-02-01T06:36:36;4.33;;;2.87;;
15595;SDS011;7898;48.658;9.068;2023-02-01T06:39:02;3.77;;;3.10;;
15595;SDS011;7898;48.658;9.068;2023-02-01T06:41:31;2.60;;;2.30;;
15595;SDS011;7898;48.658;9.068;2023-02-01T06:43:59;4.23;;;2.93;;
15595;SDS011;7898;48.658;9.068;2023-02-01T06:46:26;4.00;;;2.40;;
15595;SDS011;7898;48.658;9.068;2023-02-01T06:48:54;4.10;;;2.20;;
15595;SDS011;7898;48.658;9.068;2023-02-01T06:51:21;2.40;;;1.90;;
15595;SDS011;7898;48.658;9.068;2023-02-01T06:53:49;2.57;;;2.10;;
15595;SDS011;7898;48.658;9.068;2023-02-01T06:56:16;2.90;;;2.40;;
15595;SDS011;7898;48.658;9.068;2023-02-01T06:58:45;4.20;;;2.60;;
15595;SDS011;7898;48.658;9.068;2023-02-01T07:01:13;2.93;;;2.40;;
15595;SDS011;7898;48.658;9.068;2023-02-01T07:03:40;3.97;;;2.47;;
15595;SDS011;7898;48.658;9.068;2023-02-01T07:06:07;2.73;;;2.37;;
15595;SDS011;7898;48.658;9.068;2023-02-01T07:08:36;9.10;;;3.30;;
15595;SDS011;7898;48.658;9.068;2023-02-01T07:11:04;5.83;;;2.80;;
15595;SDS011;7898;48.658;9.068;2023-02-01T07:13:31;2.57;;;2.33;;
15595;SDS011;7898;48.658;9.068;2023-02-01T07:16:00;4.40;;;2.90;;
15595;SDS011;7898;48.658;9.068;2023-02-01T07:18:28;3.03;;;2.40;;
15595;SDS011;7898;48.658;9.068;2023-02-01T07:20:56;3.77;;;2.70;;
15595;SDS011;7898;48.658;9.068;2023-02-01T07:23:24;2.97;;;2.63;;
15595;SDS011;7898;48.658;9.068;2023-02-01T07:25:53;5.57;;;3.43;;
15595;SDS011;7898;48.658;9.068;2023-02-01T07:28:20;4.67;;;3.93;;
15595;SDS011;7898;48.658;9.068;2023-02-01T07:30:47;5.73;;;3.83;;
15595;SDS011;7898;48.658;9.068;2023-02-01T07:33:17;4.60;;;4.10;;
15595;SDS011;7898;48.658;9.068;2023-02-01T07:35:46;5.33;;;2.90;;
15595;SDS011;7898;48.658;9.068;2023-02-01T07:38:13;6.07;;;3.53;;
15595;SDS011;7898;48.658;9.068;2023-02-01T07:40:40;4.93;;;4.10;;
15595;SDS011;7898;48.658;9.068;2023-02-01T07:43:07;6.77;;;4.33;;
15595;SDS011;7898;48.658;9.068;2023-02-01T07:45:35;8.50;;;5.43;;
15595;SDS011;7898;48.658;9.068;2023-02-01T07:48:02;4.50;;;4.07;;
15595;SDS011;7898;48.658;9.068;2023-02-01T07:50:31;4.63;;;3.87;;
15595;SDS011;7898;48.658;9.068;2023-02-01T07:52:58;4.53;;;3.70;;
15595;SDS011;7898;48.658;9.068;2023-02-01T07:55:25;4.53;;;3.07;;
15595;SDS011;7898;48.658;9.068;2023-02-01T07:57:53;4.37;;;3.20;;
15595;SDS011;7898;48.658;9.068;2023-02-01T08:00:23;3.53;;;2.60;;
15595;SDS011;7898;48.658;9.068;2023-02-01T08:03:14;4.03;;;2.53;;
15595;SDS011;7898;48.658;9.068;2023-02-01T08:05:42;3.20;;;2.33;;
15595;SDS011;7898;48.658;9.068;2023-02-01T08:08:09;5.30;;;2.97;;
15595;SDS011;7898;48.658;9.068;2023-02-01T08:10:36;5.27;;;3.20;;
15595;SDS011;7898;48.658;9.068;2023-02-01T08:13:03;3.43;;;2.57;;
15595;SDS011;7898;48.658;9.068;2023-02-01T08:15:30;6.77;;;3.70;;
15595;SDS011;7898;48.658;9.068;2023-02-01T08:17:57;6.03;;;3.73;;
15595;SDS011;7898;48.658;9.068;2023-02-01T08:20:24;3.67;;;2.53;;
15595;SDS011;7898;48.658;9.068;2023-02-01T08:22:53;4.60;;;2.87;;
15595;SDS011;7898;48.658;9.068;2023-02-01T08:25:20;6.03;;;3.23;;
15595;SDS011;7898;48.658;9.068;2023-02-01T08:27:48;7.47;;;3.37;;
15595;SDS011;7898;48.658;9.068;2023-02-01T08:30:15;5.77;;;3.47;;
15595;SDS011;7898;48.658;9.068;2023-02-01T08:32:42;4.33;;;2.73;;
15595;SDS011;7898;48.658;9.068;2023-02-01T08:35:09;5.13;;;3.60;;
15595;SDS011;7898;48.658;9.068;2023-02-01T08:37:36;5.53;;;3.53;;
15595;SDS011;7898;48.658;9.068;2023-02-01T08:40:05;6.47;;;2.70;;
15595;SDS011;7898;48.658;9.068;2023-02-01T08:42:33;3.30;;;2.33;;
15595;SDS011;7898;48.658;9.068;2023-02-01T08:45:19;4.83;;;3.70;;
15595;SDS011;7898;48.658;9.068;2023-02-01T08:47:46;5.20;;;3.07;;
15595;SDS011;7898;48.658;9.068;2023-02-01T08:50:14;6.77;;;3.63;;
15595;SDS011;7898;48.658;9.068;2023-02-01T08:52:41;5.03;;;3.67;;
15595;SDS011;7898;48.658;9.068;2023-02-01T08:55:10;7.67;;;3.97;;
15595;SDS011;7898;48.658;9.068;2023-02-01T08:57:37;7.47;;;3.67;;
15595;SDS011;7898;48.658;9.068;2023-02-01T09:00:04;7.40;;;3.00;;
15595;SDS011;7898;48.658;9.068;2023-02-01T09:02:33;4.53;;;2.93;;
15595;SDS011;7898;48.658;9.068;2023-02-01T09:05:00;6.23;;;4.53;;
15595;SDS011;7898;48.658;9.068;2023-02-01T09:07:27;7.67;;;3.63;;
15595;SDS011;7898;48.658;9.068;2023-02-01T09:09:54;6.83;;;4.40;;
15595;SDS011;7898;48.658;9.068;2023-02-01T09:12:26;12.20;;;7.53;;
15595;SDS011;7898;48.658;9.068;2023-02-01T09:14:54;9.60;;;6.03;;
15595;SDS011;7898;48.658;9.068;2023-02-01T09:17:27;23.57;;;14.33;;
15595;SDS011;7898;48.658;9.068;2023-02-01T09:19:54;13.37;;;7.40;;
15595;SDS011;7898;48.658;9.068;2023-02-01T09:22:21;7.80;;;6.00;;
15595;SDS011;7898;48.658;9.068;2023-02-01T09:24:48;8.33;;;5.90;;
15595;SDS011;7898;48.658;9.068;2023-02-01T09:27:15;13.40;;;7.17;;
15595;SDS011;7898;48.658;9.068;2023-02-01T09:29:43;8.67;;;6.67;;
15595;SDS011;7898;48.658;9.068;2023-02-01T09:32:17;5.37;;;3.77;;
15595;SDS011;7898;48.658;9.068;2023-02-01T09:34:44;5.60;;;3.57;;
15595;SDS011;7898;48.658;9.068;2023-02-01T09:37:11;7.37;;;3.03;;
15595;SDS011;7898;48.658;9.068;2023-02-01T09:39:38;9.43;;;3.47;;
15595;SDS011;7898;48.658;9.068;2023-02-01T09:42:08;9.17;;;3.67;;
15595;SDS011;7898;48.658;9.068;2023-02-01T09:44:49;5.20;;;2.57;;
15595;SDS011;7898;48.658;9.068;2023-02-01T09:47:32;4.13;;;2.53;;
15595;SDS011;7898;48.658;9.068;2023-02-01T09:50:02;3.87;;;2.47;;
15595;SDS011;7898;48.658;9.068;2023-02-01T09:52:34;5.70;;;3.17;;
15595;SDS011;7898;48.658;9.068;2023-02-01T09:55:07;6.67;;;3.70;;
15595;SDS011;7898;48.658;9.068;2023-02-01T09:57:43;6.77;;;3.40;;
15595;SDS011;7898;48.658;9.068;2023-02-01T10:00:17;7.10;;;3.37;;
15595;SDS011;7898;48.658;9.068;2023-02-01T10:02:47;4.70;;;3.17;;
15595;SDS011;7898;48.658;9.068;2023-02-01T10:05:16;7.23;;;3.40;;
15595;SDS011;7898;48.658;9.068;2023-02-01T10:07:53;7.10;;;3.17;;
15595;SDS011;7898;48.658;9.068;2023-02-01T10:10:28;5.10;;;2.47;;
15595;SDS011;7898;48.658;9.068;2023-02-01T10:13:13;5.60;;;2.50;;
15595;SDS011;7898;48.658;9.068;2023-02-01T10:15:52;9.37;;;2.60;;
15595;SDS011;7898;48.658;9.068;2023-02-01T10:21:27;4.87;;;3.13;;
15595;SDS011;7898;48.658;9.068;2023-02-01T10:27:02;5.50;;;2.43;;
15595;SDS011;7898;48.658;9.068;2023-02-01T10:29:36;7.43;;;2.47;;
15595;SDS011;7898;48.658;9.068;2023-02-01T10:32:19;3.87;;;2.30;;
15595;SDS011;7898;48.658;9.068;2023-02-01T10:34:48;8.40;;;3.00;;
15595;SDS011;7898;48.658;9.068;2023-02-01T10:37:22;6.50;;;3.07;;
15595;SDS011;7898;48.658;9.068;2023-02-01T10:39:52;9.33;;;2.83;;
15595;SDS011;7898;48.658;9.068;2023-02-01T10:42:23;6.43;;;2.43;;
15595;SDS011;7898;48.658;9.068;2023-02-01T10:44:52;8.53;;;2.67;;
15595;SDS011;7898;48.658;9.068;2023-02-01T10:47:25;8.83;;;2.70;;
15595;SDS011;7898;48.658;9.068;2023-02-01T10:49:54;8.80;;;2.63;;
15595;SDS011;7898;48.658;9.068;2023-02-01T10:52:33;9.37;;;2.47;;
15595;SDS011;7898;48.658;9.068;2023-02-01T10:57:56;11.57;;;2.80;;
15595;SDS011;7898;48.658;9.068;2023-02-01T11:00:24;5.53;;;2.23;;
15595;SDS011;7898;48.658;9.068;2023-02-01T11:02:53;8.53;;;3.20;;
15595;SDS011;7898;48.658;9.068;2023-02-01T11:05:21;12.40;;;2.83;;
15595;SDS011;7898;48.658;9.068;2023-02-01T11:07:49;8.63;;;2.73;;
15595;SDS011;7898;48.658;9.068;2023-02-01T11:10:35;8.47;;;2.40;;
15595;SDS011;7898;48.658;9.068;2023-02-01T11:13:05;9.37;;;5.07;;
15595;SDS011;7898;48.658;9.068;2023-02-01T11:15:39;11.97;;;3.43;;
15595;SDS011;7898;48.658;9.068;2023-02-01T11:18:16;7.60;;;2.90;;
15595;SDS011;7898;48.658;9.068;2023-02-01T11:20:44;9.77;;;4.07;;
15595;SDS011;7898;48.658;9.068;2023-02-01T11:23:15;9.07;;;4.00;;
15595;SDS011;7898;48.658;9.068;2023-02-01T11:25:49;13.30;;;5.00;;
15595;SDS011;7898;48.658;9.068;2023-02-01T11:28:17;8.53;;;4.43;;
15595;SDS011;7898;48.658;9.068;2023-02-01T11:30:48;9.37;;;3.03;;
15595;SDS011;7898;48.658;9.068;2023-02-01T11:33:19;8.17;;;3.43;;
15595;SDS011;7898;48.658;9.068;2023-02-01T11:35:50;11.50;;;2.73;;
15595;SDS011;7898;48.658;9.068;2023-02-01T11:38:20;5.10;;;2.83;;
15595;SDS011;7898;48.658;9.068;2023-02-01T11:40:50;5.67;;;2.37;;
15595;SDS011;7898;48.658;9.068;2023-02-01T11:43:19;6.27;;;3.00;;
15595;SDS011;7898;48.658;9.068;2023-02-01T11:45:53;10.03;;;3.83;;
15595;SDS011;7898;48.658;9.068;2023-02-01T11:48:24;8.07;;;2.40;;
15595;SDS011;7898;48.658;9.068;2023-02-01T11:50:55;9.23;;;2.50;;
15595;SDS011;7898;48.658;9.068;2023-02-01T11:53:37;10.63;;;3.13;;
15595;SDS011;7898;48.658;9.068;2023-02-01T11:56:22;9.50;;;3.30;;
15595;SDS011;7898;48.658;9.068;2023-02-01T11:58:59;12.47;;;4.30;;
15595;SDS011;7898;48.658;9.068;2023-02-01T12:02:02;5.77;;;2.57;;
15595;SDS011;7898;48.658;9.068;2023-02-01T12:04:53;6.30;;;2.73;;
15595;SDS011;7898;48.658;9.068;2023-02-01T12:07:38;12.67;;;2.80;;
15595;SDS011;7898;48.658;9.068;2023-02-01T12:10:22;7.70;;;4.00;;
15595;SDS011;7898;48.658;9.068;2023-02-01T12:13:03;7.83;;;2.80;;
15595;SDS011;7898;48.658;9.068;2023-02-01T12:15:42;7.20;;;3.73;;
15595;SDS011;7898;48.658;9.068;2023-02-01T12:21:22;9.60;;;3.10;;
15595;SDS011;7898;48.658;9.068;2023-02-01T12:24:05;6.03;;;3.20;;
15595;SDS011;7898;48.658;9.068;2023-02-01T12:26:46;12.97;;;3.60;;
15595;SDS011;7898;48.658;9.068;2023-02-01T12:32:25;5.97;;;2.60;;
15595;SDS011;7898;48.658;9.068;2023-02-01T12:35:12;7.33;;;2.33;;
15595;SDS011;7898;48.658;9.068;2023-02-01T12:37:51;6.70;;;2.33;;
15595;SDS011;7898;48.658;9.068;2023-02-01T12:40:28;7.97;;;2.80;;
15595;SDS011;7898;48.658;9.068;2023-02-01T12:43:06;9.13;;;2.90;;
15595;SDS011;7898;48.658;9.068;2023-02-01T12:45:39;8.63;;;2.77;;
15595;SDS011;7898;48.658;9.068;2023-02-01T12:48:16;8.83;;;2.70;;
15595;SDS011;7898;48.658;9.068;2023-02-01T12:50:54;11.47;;;2.80;;
15595;SDS011;7898;48.658;9.068;2023-02-01T12:53:26;10.23;;;3.77;;
15595;SDS011;7898;48.658;9.068;2023-02-01T12:56:01;8.77;;;2.70;;
15595;SDS011;7898;48.658;9.068;2023-02-01T12:58:33;6.03;;;2.63;;
15595;SDS011;7898;48.658;9.068;2023-02-01T13:01:06;6.47;;;3.00;;
15595;SDS011;7898;48.658;9.068;2023-02-01T13:03:39;8.60;;;2.87;;
15595;SDS011;7898;48.658;9.068;2023-02-01T13:06:12;12.30;;;4.10;;
15595;SDS011;7898;48.658;9.068;2023-02-01T13:08:44;8.10;;;2.90;;
15595;SDS011;7898;48.658;9.068;2023-02-01T13:11:16;7.33;;;2.80;;
15595;SDS011;7898;48.658;9.068;2023-02-01T13:13:52;9.47;;;2.40;;
15595;SDS011;7898;48.658;9.068;2023-02-01T13:16:27;9.87;;;2.93;;
15595;SDS011;7898;48.658;9.068;2023-02-01T13:18:59;9.27;;;3.50;;
15595;SDS011;7898;48.658;9.068;2023-02-01T13:21:37;8.53;;;2.20;;
15595;SDS011;7898;48.658;9.068;2023-02-01T13:24:26;11.17;;;3.00;;
15595;SDS011;7898;48.658;9.068;2023-02-01T13:26:59;8.77;;;2.30;;
15595;SDS011;7898;48.658;9.068;2023-02-01T13:29:27;10.90;;;2.77;;
15595;SDS011;7898;48.658;9.068;2023-02-01T13:32:03;8.30;;;3.17;;
15595;SDS011;7898;48.658;9.068;2023-02-01T13:34:56;7.53;;;2.83;;
15595;SDS011;7898;48.658;9.068;2023-02-01T13:40:42;11.30;;;2.80;;
15595;SDS011;7898;48.658;9.068;2023-02-01T13:43:15;7.70;;;2.77;;
15595;SDS011;7898;48.658;9.068;2023-02-01T13:45:49;9.20;;;2.63;;
15595;SDS011;7898;48.658;9.068;2023-02-01T13:48:19;9.10;;;3.13;;
15595;SDS011;7898;48.658;9.068;2023-02-01T13:50:51;8.33;;;2.53;;
15595;SDS011;7898;48.658;9.068;2023-02-01T13:53:22;8.00;;;2.70;;
15595;SDS011;7898;48.658;9.068;2023-02-01T13:55:58;6.40;;;2.50;;
15595;SDS011;7898;48.658;9.068;2023-02-01T13:58:31;6.70;;;2.93;;
15595;SDS011;7898;48.658;9.068;2023-02-01T14:04:00;8.33;;;2.30;;
15595;SDS011;7898;48.658;9.068;2023-02-01T14:06:41;8.03;;;2.70;;
15595;SDS011;7898;48.658;9.068;2023-02-01T14:09:12;8.63;;;2.57;;
15595;SDS011;7898;48.658;9.068;2023-02-01T14:11:43;11.47;;;3.57;;
15595;SDS011;7898;48.658;9.068;2023-02-01T14:23:27;13.17;;;3.13;;
15595;SDS011;7898;48.658;9.068;2023-02-01T14:26:03;8.53;;;2.90;;
15595;SDS011;7898;48.658;9.068;2023-02-01T14:28:38;8.37;;;3.03;;
15595;SDS011;7898;48.658;9.068;2023-02-01T14:34:21;9.77;;;2.63;;
15595;SDS011;7898;48.658;9.068;2023-02-01T14:36:55;13.17;;;3.00;;
15595;SDS011;7898;48.658;9.068;2023-02-01T14:39:26;13.37;;;3.07;;
15595;SDS011;7898;48.658;9.068;2023-02-01T14:42:04;12.23;;;3.23;;
15595;SDS011;7898;48.658;9.068;2023-02-01T14:44:44;5.33;;;2.37;;
15595;SDS011;7898;48.658;9.068;2023-02-01T14:52:51;5.90;;;2.30;;
15595;SDS011;7898;48.658;9.068;2023-02-01T14:55:32;9.53;;;3.30;;
15595;SDS011;7898;48.658;9.068;2023-02-01T14:58:05;9.63;;;3.10;;
15595;SDS011;7898;48.658;9.068;2023-02-01T15:00:37;8.40;;;2.87;;
15595;SDS011;7898;48.658;9.068;2023-02-01T15:03:16;10.17;;;2.87;;
15595;SDS011;7898;48.658;9.068;2023-02-01T15:05:54;8.70;;;2.93;;
15595;SDS011;7898;48.658;9.068;2023-02-01T15:08:24;9.07;;;3.47;;
15595;SDS011;7898;48.658;9.068;2023-02-01T15:10:52;16.47;;;6.30;;
15595;SDS011;7898;48.658;9.068;2023-02-01T15:13:22;8.20;;;4.80;;
15595;SDS011;7898;48.658;9.068;2023-02-01T15:16:04;7.70;;;2.57;;
15595;SDS011;7898;48.658;9.068;2023-02-01T15:18:35;11.60;;;2.60;;
15595;SDS011;7898;48.658;9.068;2023-02-01T15:21:03;12.33;;;3.10;;
15595;SDS011;7898;48.658;9.068;2023-02-01T15:23:32;10.67;;;2.47;;
15595;SDS011;7898;48.658;9.068;2023-02-01T15:25:59;12.23;;;3.33;;
15595;SDS011;7898;48.658;9.068;2023-02-01T15:28:26;7.63;;;2.80;;
15595;SDS011;7898;48.658;9.068;2023-02-01T15:30:56;8.53;;;2.97;;
15595;SDS011;7898;48.658;9.068;2023-02-01T15:33:26;8.20;;;3.27;;
15595;SDS011;7898;48.658;9.068;2023-02-01T15:35:55;7.90;;;2.93;;
15595;SDS011;7898;48.658;9.068;2023-02-01T15:38:37;10.77;;;3.00;;
15595;SDS011;7898;48.658;9.068;2023-02-01T15:41:06;9.17;;;2.90;;
15595;SDS011;7898;48.658;9.068;2023-02-01T15:43:38;9.80;;;3.67;;
15595;SDS011;7898;48.658;9.068;2023-02-01T15:46:08;12.07;;;3.13;;
15595;SDS011;7898;48.658;9.068;2023-02-01T15:48:41;7.23;;;3.33;;
15595;SDS011;7898;48.658;9.068;2023-02-01T15:51:14;9.13;;;2.70;;
15595;SDS011;7898;48.658;9.068;2023-02-01T15:53:44;9.10;;;3.37;;
15595;SDS011;7898;48.658;9.068;2023-02-01T15:56:14;13.03;;;3.40;;
15595;SDS011;7898;48.658;9.068;2023-02-01T15:58:43;7.37;;;3.00;;
15595;SDS011;7898;48.658;9.068;2023-02-01T16:01:13;11.67;;;3.27;;
15595;SDS011;7898;48.658;9.068;2023-02-01T16:03:42;9.53;;;3.37;;
15595;SDS011;7898;48.658;9.068;2023-02-01T16:06:18;5.07;;;2.43;;
15595;SDS011;7898;48.658;9.068;2023-02-01T16:08:55;7.63;;;3.20;;
15595;SDS011;7898;48.658;9.068;2023-02-01T16:11:26;13.07;;;7.43;;
15595;SDS011;7898;48.658;9.068;2023-02-01T16:13:55;6.53;;;4.40;;
15595;SDS011;7898;48.658;9.068;2023-02-01T16:16:23;15.17;;;4.77;;